Flight Track Log - Related Links

Times and Time Zones

All times are in EDT time to prevent confusion due to time zone crossing. See the QXE2483 flight status page for this flight to view local times or setup timezone preferences in your user account.

Time Position Orientation Groundspeed Altitude Reporting Facility
EDT Latitude Longitude Course Direction KTS MPH feet Rate Location/Type
Fri 11:08:00 AM 45.0630 -122.8102 199° South  Level FlightAware Approximate
Fri 11:09:00 AM 44.9888 -122.8445 196° South  Level FlightAware Approximate
Fri 11:10:00 AM 44.9141 -122.8763 200° South  Level FlightAware Approximate
Fri 11:11:00 AM 44.8401 -122.9107 196° South  Level FlightAware Approximate
Fri 11:12:00 AM 44.7650 -122.9407 196° South  Level FlightAware Approximate
Fri 11:13:00 AM 44.6899 -122.9705 195° South  Level FlightAware Approximate
Fri 11:14:00 AM 44.6145 -122.9987 195° South  Level FlightAware Approximate
Fri 11:15:00 AM 44.5395 -123.0288 198° South  Level FlightAware Approximate
Fri 11:16:00 AM 44.4694 -123.0602 198° South  Level FlightAware Approximate
Fri 11:17:00 AM 44.3993 -123.0914 198° South  Level FlightAware Approximate
Fri 11:18:00 AM 44.3292 -123.1226 198° South  Level FlightAware Approximate
Fri 11:19:00 AM 44.2591 -123.1537 198° South  Level FlightAware Approximate
Fri 11:20:00 AM 44.1889 -123.1848 198° South  Level FlightAware Approximate
Fri 11:21:00 AM 44.1188 -123.2157 198° South  Level FlightAware Approximate
Fri 11:22:00 AM 44.0469 -123.1968 173° South  Level FlightAware Approximate
Fri 11:23:00 AM 43.9738 -123.1851 173° South  Level FlightAware Approximate
Fri 11:24:00 AM 43.9007 -123.1733 173° South  Level FlightAware Approximate
Fri 11:25:00 AM 43.8276 -123.1616 173° South  Level FlightAware Approximate
Fri 11:26:00 AM 43.7545 -123.1500 173° South  Level FlightAware Approximate
Fri 11:27:00 AM 43.6814 -123.1383 173° South  Level FlightAware Approximate
Fri 11:28:00 AM 43.6089 -123.1216 168° South  Level FlightAware Approximate
Fri 11:29:00 AM 43.5339 -123.1167 177° South  Level FlightAware Approximate
Fri 11:30:00 AM 43.4586 -123.1069 175° South  Level FlightAware Approximate
Fri 11:31:00 AM 43.3834 -123.0970 175° South  Level FlightAware Approximate
Fri 11:32:00 AM 43.3081 -123.0872 175° South  Level FlightAware Approximate
Fri 11:33:00 AM 43.2329 -123.0774 175° South  Level FlightAware Approximate
Fri 11:34:00 AM 43.1576 -123.0677 175° South  Level FlightAware Approximate
Fri 11:35:00 AM 43.0821 -123.0665 176° South  Level FlightAware Approximate
Fri 11:36:00 AM 43.0067 -123.0590 176° South  Level FlightAware Approximate
Fri 11:37:00 AM 42.9313 -123.0515 176° South  Level FlightAware Approximate
Fri 11:38:00 AM 42.8562 -123.0399 173° South  Level FlightAware Approximate
Fri 11:39:00 AM 42.7812 -123.0274 173° South  Level FlightAware Approximate
Fri 11:40:00 AM 42.7062 -123.0146 172° South  Level FlightAware Approximate
Fri 11:41:00 AM 42.6314 -122.9994 166° South  Level FlightAware Approximate
Fri 11:42:00 AM 42.5589 -122.9711 160° South  Level FlightAware Approximate
Fri 11:43:00 AM 42.4895 -122.9304 156° South  Level FlightAware Approximate
Fri 11:44:00 AM 42.4192 -122.8929 160° South  Level FlightAware Approximate
Fri 11:45:00 AM 42.3742 -122.8735 160° South  Level Estimated
Fri 11:46:00 AM 42.3742 -122.8735 160° South  Level Estimated
Fri 11:47:00 AM 42.3742 -122.8735 160° South  Level Estimated
Fri 11:48:00 AM 42.3742 -122.8735 160° South  Level Estimated
Fri 11:49:00 AM 42.3742 -122.8735 160° South  Level Estimated

Login

Don't have an account? Register now (free) for customized features, flight alerts, and more!